Time;durP1;ratioP1;P1;durP2;ratioP2;P2;SDS_P1;SDS_P2;PMS_P1;PMS_P2;Temp;Humidity;BMP_temperature;BMP_pressure;BME280_temperature;BME280_humidity;BME280_pressure;Samples;Min_cycle;Max_cycle;Signal;HPM_P1;HPM_P2
2023/06/01 00:01:49;;;;;;;;;;;;;;;19.51;46.42;101081.63;4956264;28;6827;-74
2023/06/01 00:04:16;;;;;;;;;;;;;;;19.46;46.00;101088.44;4980403;28;6764;-73
2023/06/01 00:06:43;;;;;;;;;;;;;;;19.42;46.40;101089.22;4982379;28;6796;-74
2023/06/01 00:09:09;;;;;;;;;;;;;;;19.38;46.73;101083.06;4951505;28;7164;-74
2023/06/01 00:11:36;;;;;;;;;;;;;;;19.35;46.88;101082.13;4960731;28;6776;-74
2023/06/01 00:14:02;;;;;;;;;;;;;;;19.33;46.99;101087.28;4954512;28;7141;-74
2023/06/01 00:16:31;;;;;;;;;;;;;;;19.31;47.41;101095.88;4959073;28;6788;-73
2023/06/01 00:19:00;;;;;;;;;;;;;;;19.25;47.49;101081.91;4973786;28;7253;-74
2023/06/01 00:21:27;;;;;;;;;;;;;;;19.23;47.70;101087.91;4989837;28;7091;-74
2023/06/01 00:23:53;;;;;;;;;;;;;;;19.18;47.36;101089.53;4941484;28;6988;-74
2023/06/01 00:26:19;;;;;;;;;;;;;;;19.12;47.71;101085.94;4988030;28;6848;-74
2023/06/01 00:28:44;;;;;;;;;;;;;;;19.09;47.97;101082.38;4973976;28;6792;-74
2023/06/01 00:31:10;;;;;;;;;;;;;;;19.04;48.28;101079.69;4988079;28;7025;-74
2023/06/01 00:33:36;;;;;;;;;;;;;;;18.99;48.22;101089.94;4985013;28;7819;-74
2023/06/01 00:36:01;;;;;;;;;;;;;;;18.95;48.71;101088.09;4979109;28;6984;-74
2023/06/01 00:38:27;;;;;;;;;;;;;;;18.90;48.40;101083.66;4965569;28;6940;-73
2023/06/01 00:40:53;;;;;;;;;;;;;;;18.86;49.03;101082.69;4991041;28;6943;-74
2023/06/01 00:43:19;;;;;;;;;;;;;;;18.79;48.88;101086.84;4960549;28;7188;-73
2023/06/01 00:45:44;;;;;;;;;;;;;;;18.77;49.13;101082.44;4961847;28;6935;-74
2023/06/01 00:48:15;;;;;;;;;;;;;;;18.72;48.82;101085.78;4990175;28;7093;-74
2023/06/01 00:50:42;;;;;;;;;;;;;;;18.68;49.37;101093.47;4954599;28;6812;-74
2023/06/01 00:53:18;;;;;;;;;;;;;;;18.62;49.03;101086.41;4958947;28;7208;-74
2023/06/01 00:55:45;;;;;;;;;;;;;;;18.57;49.32;101081.09;4957711;28;6915;-74
2023/06/01 00:58:12;;;;;;;;;;;;;;;18.51;49.74;101088.75;4977111;28;8074;-73
2023/06/01 01:00:38;;;;;;;;;;;;;;;18.44;49.85;101082.47;4991065;28;6938;-73
2023/06/01 01:03:08;;;;;;;;;;;;;;;18.39;49.48;101084.09;4991319;28;6910;-74
2023/06/01 01:05:36;;;;;;;;;;;;;;;18.32;49.94;101090.84;4969520;28;6852;-74
2023/06/01 01:08:40;;;;;;;;;;;;;;;18.27;50.73;101096.75;4978948;28;8107;-74
2023/06/01 01:11:26;;;;;;;;;;;;;;;18.18;50.29;101090.47;4991508;28;7241;-74
2023/06/01 01:14:23;;;;;;;;;;;;;;;18.13;50.75;101093.75;4976773;28;6800;-74
2023/06/01 01:17:02;;;;;;;;;;;;;;;18.08;50.91;101097.94;4982648;28;7034;-74
2023/06/01 01:19:58;;;;;;;;;;;;;;;18.04;50.77;101094.38;4939501;28;7108;-74
2023/06/01 01:23:16;;;;;;;;;;;;;;;18.01;51.35;101102.94;4986578;28;8058;-74
2023/06/01 01:25:54;;;;;;;;;;;;;;;17.98;51.37;101104.56;4956380;28;6840;-74
2023/06/01 01:28:32;;;;;;;;;;;;;;;17.96;51.19;101099.31;4955841;28;8219;-74
2023/06/01 01:31:01;;;;;;;;;;;;;;;17.96;51.93;101104.50;4953714;28;6812;-73
2023/06/01 01:33:28;;;;;;;;;;;;;;;17.95;51.39;101100.16;4978984;28;7078;-74
2023/06/01 01:35:56;;;;;;;;;;;;;;;17.95;51.72;101107.03;4988548;28;7126;-74
2023/06/01 01:38:21;;;;;;;;;;;;;;;17.94;51.63;101107.88;4954525;28;6824;-74
2023/06/01 01:40:49;;;;;;;;;;;;;;;17.91;51.53;101104.38;4988540;28;9656;-74
2023/06/01 01:43:15;;;;;;;;;;;;;;;17.89;52.09;101095.66;4988330;28;6808;-74
2023/06/01 01:45:42;;;;;;;;;;;;;;;17.88;51.68;101104.28;4958048;28;6804;-74
2023/06/01 01:48:37;;;;;;;;;;;;;;;17.86;52.04;101107.66;4987411;28;6784;-74
2023/06/01 01:51:13;;;;;;;;;;;;;;;17.80;51.98;101103.19;4955537;28;6819;-74
2023/06/01 01:53:42;;;;;;;;;;;;;;;17.77;52.17;101105.69;4971933;28;9727;-73
2023/06/01 01:56:10;;;;;;;;;;;;;;;17.74;52.23;101100.41;4949615;28;6899;-74
2023/06/01 01:58:37;;;;;;;;;;;;;;;17.68;52.13;101095.91;4982320;28;6784;-74
2023/06/01 02:01:04;;;;;;;;;;;;;;;17.65;52.51;101100.13;4963007;28;7248;-74
2023/06/01 02:03:30;;;;;;;;;;;;;;;17.58;52.36;101097.38;4951634;28;6788;-74
2023/06/01 02:05:56;;;;;;;;;;;;;;;17.54;52.76;101098.09;4979402;28;6775;-74
2023/06/01 02:08:21;;;;;;;;;;;;;;;17.48;52.40;101097.91;4981524;28;7288;-73
2023/06/01 02:10:47;;;;;;;;;;;;;;;17.42;52.80;101089.94;4975163;28;6844;-74
2023/06/01 02:13:12;;;;;;;;;;;;;;;17.37;52.25;101099.28;4938070;28;7212;-74
2023/06/01 02:15:38;;;;;;;;;;;;;;;17.30;52.77;101088.75;4985309;28;6848;-74
2023/06/01 02:18:04;;;;;;;;;;;;;;;17.27;52.84;101091.22;4965054;28;6983;-74
2023/06/01 02:20:29;;;;;;;;;;;;;;;17.22;53.40;101090.19;4970377;28;6975;-73
2023/06/01 02:22:55;;;;;;;;;;;;;;;17.17;53.17;101092.66;4957400;28;7296;-74
2023/06/01 02:25:21;;;;;;;;;;;;;;;17.13;53.24;101090.78;4971528;28;6996;-74
2023/06/01 02:27:46;;;;;;;;;;;;;;;17.09;52.97;101088.94;4989266;28;6768;-74
2023/06/01 02:30:12;;;;;;;;;;;;;;;17.05;53.35;101090.53;4966432;28;6844;-73
2023/06/01 02:32:38;;;;;;;;;;;;;;;17.01;53.53;101090.38;4968061;28;6954;-77
2023/06/01 02:35:06;;;;;;;;;;;;;;;16.97;53.55;101091.97;4974539;28;6967;-78
2023/06/01 02:37:32;;;;;;;;;;;;;;;16.91;53.86;101092.63;4979297;28;6947;-76
2023/06/01 02:39:57;;;;;;;;;;;;;;;16.88;53.56;101094.25;4959604;28;6772;-78
2023/06/01 02:42:23;;;;;;;;;;;;;;;16.83;54.13;101090.63;4993128;28;6780;-78
2023/06/01 02:44:48;;;;;;;;;;;;;;;16.79;53.80;101100.00;4961948;28;7033;-78
2023/06/01 02:47:14;;;;;;;;;;;;;;;16.75;54.04;101104.19;4965712;28;6869;-78
2023/06/01 02:49:40;;;;;;;;;;;;;;;16.71;54.10;101102.34;4948686;28;7280;-77
2023/06/01 02:52:06;;;;;;;;;;;;;;;16.66;54.43;101101.28;4958058;28;7154;-75
2023/06/01 02:54:33;;;;;;;;;;;;;;;16.61;54.31;101106.31;4960220;28;6789;-78
2023/06/01 02:56:58;;;;;;;;;;;;;;;16.57;54.46;101103.56;4964037;28;7189;-78
2023/06/01 02:59:24;;;;;;;;;;;;;;;16.50;54.52;101098.16;4989032;28;6791;-72
2023/06/01 03:01:50;;;;;;;;;;;;;;;16.44;54.78;101103.16;4975701;28;6953;-73
2023/06/01 03:04:17;;;;;;;;;;;;;;;16.40;54.61;101103.84;4978090;28;6767;-73
2023/06/01 03:06:43;;;;;;;;;;;;;;;16.36;54.64;101100.25;4982915;28;6811;-72
2023/06/01 03:09:12;;;;;;;;;;;;;;;16.34;54.82;101106.25;4962299;28;7078;-73
2023/06/01 03:11:42;;;;;;;;;;;;;;;16.30;54.88;101099.16;4988608;28;7223;-72
2023/06/01 03:14:08;;;;;;;;;;;;;;;16.28;55.02;101100.84;4947144;28;7154;-73
2023/06/01 03:16:34;;;;;;;;;;;;;;;16.24;55.04;101095.56;4988988;28;6929;-73
2023/06/01 03:19:00;;;;;;;;;;;;;;;16.21;54.94;101110.94;4990285;28;7268;-73
2023/06/01 03:21:27;;;;;;;;;;;;;;;16.17;54.98;101109.09;4989569;28;6847;-74
2023/06/01 03:23:53;;;;;;;;;;;;;;;16.12;55.39;101105.44;4976198;28;6921;-74
2023/06/01 03:26:20;;;;;;;;;;;;;;;16.07;54.98;101114.75;4960168;28;6831;-73
2023/06/01 03:28:47;;;;;;;;;;;;;;;16.03;55.62;101107.69;4992228;28;6897;-74
2023/06/01 03:31:13;;;;;;;;;;;;;;;16.00;55.26;101102.41;4964351;28;8078;-74
2023/06/01 03:33:39;;;;;;;;;;;;;;;15.95;55.31;101103.13;4941272;28;7004;-74
2023/06/01 03:36:06;;;;;;;;;;;;;;;15.93;55.02;101106.47;4961540;28;7178;-73
2023/06/01 03:38:32;;;;;;;;;;;;;;;15.91;55.60;101113.31;4955467;28;7025;-75
2023/06/01 03:40:58;;;;;;;;;;;;;;;15.89;55.35;101118.38;4977072;28;8422;-73
2023/06/01 03:43:24;;;;;;;;;;;;;;;15.87;55.81;101120.03;4988458;28;7128;-73
2023/06/01 03:45:49;;;;;;;;;;;;;;;15.86;55.82;101113.09;4991951;28;9620;-73
2023/06/01 03:48:15;;;;;;;;;;;;;;;15.86;56.04;101118.25;4955207;28;6918;-73
2023/06/01 03:50:41;;;;;;;;;;;;;;;15.85;55.75;101123.38;4964236;28;6768;-74
2023/06/01 03:53:07;;;;;;;;;;;;;;;15.83;56.14;101116.44;4960342;28;6788;-74
2023/06/01 03:55:33;;;;;;;;;;;;;;;15.81;55.85;101119.78;4989448;28;7241;-73
2023/06/01 03:57:58;;;;;;;;;;;;;;;15.80;56.17;101123.19;4965312;28;6837;-73
2023/06/01 04:00:24;;;;;;;;;;;;;;;15.79;56.11;101126.59;4956891;28;6840;-75
2023/06/01 04:03:01;;;;;;;;;;;;;;;15.79;56.36;101132.66;4983254;28;7277;-74
2023/06/01 04:05:27;;;;;;;;;;;;;;;15.78;56.08;101128.28;4958688;28;6831;-72
2023/06/01 04:07:55;;;;;;;;;;;;;;;15.79;56.05;101122.34;4974088;28;9473;-73
2023/06/01 04:10:21;;;;;;;;;;;;;;;15.81;56.15;101125.84;4987661;28;7197;-73
2023/06/01 04:12:49;;;;;;;;;;;;;;;15.86;56.54;101127.72;4971679;28;7329;-72
2023/06/01 04:15:17;;;;;;;;;;;;;;;15.89;56.69;101128.72;4959967;28;6900;-75
2023/06/01 04:17:43;;;;;;;;;;;;;;;15.93;56.36;101135.81;4992702;28;8301;-72
2023/06/01 04:20:12;;;;;;;;;;;;;;;15.96;56.29;101135.03;4977581;28;7018;-72
2023/06/01 04:22:40;;;;;;;;;;;;;;;16.00;56.77;101136.03;4992451;28;7030;-75
2023/06/01 04:25:12;;;;;;;;;;;;;;;16.04;56.54;101127.56;4956227;28;6839;-75
2023/06/01 04:27:46;;;;;;;;;;;;;;;16.09;56.88;101137.25;4989183;28;7213;-75
2023/06/01 04:30:13;;;;;;;;;;;;;;;16.15;56.94;101133.13;4962124;28;6963;-72
2023/06/01 04:32:39;;;;;;;;;;;;;;;16.21;56.72;101135.94;4976306;28;11492;-73
2023/06/01 04:35:07;;;;;;;;;;;;;;;16.27;56.23;101140.47;4961174;28;6979;-74
2023/06/01 04:37:36;;;;;;;;;;;;;;;16.27;56.32;101128.38;4940571;28;7103;-73
2023/06/01 04:40:09;;;;;;;;;;;;;;;16.28;56.40;101132.75;4967359;28;7014;-73
2023/06/01 04:42:38;;;;;;;;;;;;;;;16.28;56.44;101131.88;4959520;28;7427;-73
2023/06/01 04:45:07;;;;;;;;;;;;;;;16.30;56.69;101131.09;4977424;28;7991;-76
2023/06/01 04:47:40;;;;;;;;;;;;;;;16.32;56.63;101132.03;4992189;28;7239;-74
2023/06/01 04:50:10;;;;;;;;;;;;;;;16.33;56.58;101135.53;4989043;28;6803;-74
2023/06/01 04:52:41;;;;;;;;;;;;;;;16.36;56.73;101136.47;4977236;28;7271;-73
2023/06/01 04:55:08;;;;;;;;;;;;;;;16.38;56.43;101139.13;4951367;28;6784;-76
2023/06/01 04:57:35;;;;;;;;;;;;;;;16.37;56.37;101138.28;4987272;28;7117;-74
2023/06/01 05:00:06;;;;;;;;;;;;;;;16.34;56.04;101142.44;4956052;28;7079;-73
2023/06/01 05:02:31;;;;;;;;;;;;;;;16.31;56.13;101142.31;4962126;28;7293;-75
2023/06/01 05:04:57;;;;;;;;;;;;;;;16.29;56.08;101146.56;4961635;28;6776;-72
2023/06/01 05:07:24;;;;;;;;;;;;;;;16.29;56.41;101150.03;4960955;28;6862;-73
2023/06/01 05:09:50;;;;;;;;;;;;;;;16.31;56.19;101147.50;4987355;28;7227;-73
2023/06/01 05:12:15;;;;;;;;;;;;;;;16.32;56.21;101149.25;4952211;28;6776;-72
2023/06/01 05:14:41;;;;;;;;;;;;;;;16.33;56.13;101153.63;4980136;28;9020;-72
2023/06/01 05:17:07;;;;;;;;;;;;;;;16.29;56.21;101147.44;4977485;28;7021;-72
2023/06/01 05:19:32;;;;;;;;;;;;;;;16.27;56.06;101151.66;4965738;28;7164;-75
2023/06/01 05:21:58;;;;;;;;;;;;;;;16.23;56.34;101149.81;4954884;28;7015;-75
2023/06/01 05:24:23;;;;;;;;;;;;;;;16.18;56.35;101149.63;4967585;28;7025;-72
2023/06/01 05:26:49;;;;;;;;;;;;;;;16.15;55.79;101152.13;4986748;28;6780;-73
2023/06/01 05:29:15;;;;;;;;;;;;;;;16.14;56.18;101145.19;4965166;28;6838;-75
2023/06/01 05:31:40;;;;;;;;;;;;;;;16.12;56.64;101146.81;4953630;28;6808;-73
2023/06/01 05:34:06;;;;;;;;;;;;;;;16.14;56.67;101146.88;4944750;28;7419;-71
2023/06/01 05:36:31;;;;;;;;;;;;;;;16.18;56.80;101157.41;4971138;28;7510;-72
2023/06/01 05:38:58;;;;;;;;;;;;;;;16.22;56.29;101158.38;4976510;28;6979;-73
2023/06/01 05:41:23;;;;;;;;;;;;;;;16.24;56.20;101156.72;4979706;28;6796;-72
2023/06/01 05:43:50;;;;;;;;;;;;;;;16.28;56.35;101158.63;4985691;28;6787;-73
2023/06/01 05:46:16;;;;;;;;;;;;;;;16.32;56.42;101159.59;4970794;28;7253;-71
2023/06/01 05:48:42;;;;;;;;;;;;;;;16.34;56.36;101163.16;4977296;28;7227;-71
2023/06/01 05:51:07;;;;;;;;;;;;;;;16.34;56.01;101156.25;4986346;28;7007;-71
2023/06/01 05:53:33;;;;;;;;;;;;;;;16.31;55.94;101158.72;4956573;28;6924;-73
2023/06/01 05:55:59;;;;;;;;;;;;;;;16.29;56.18;101162.97;4988758;28;6810;-72
2023/06/01 05:58:24;;;;;;;;;;;;;;;16.30;55.97;101169.91;4956890;28;6780;-73
2023/06/01 06:00:50;;;;;;;;;;;;;;;16.32;55.82;101177.69;4973203;28;6981;-71
2023/06/01 06:03:16;;;;;;;;;;;;;;;16.32;55.67;101169.94;4958529;28;6776;-74
2023/06/01 06:05:41;;;;;;;;;;;;;;;16.30;55.95;101176.78;4972346;28;6801;-74
2023/06/01 06:08:07;;;;;;;;;;;;;;;16.26;56.12;101170.59;4985325;28;6788;-71
2023/06/01 06:10:32;;;;;;;;;;;;;;;16.28;55.73;101168.09;4956440;28;6950;-74
2023/06/01 06:12:58;;;;;;;;;;;;;;;16.28;55.90;101168.09;4959946;28;6764;-73
2023/06/01 06:15:24;;;;;;;;;;;;;;;16.32;56.15;101167.34;4956096;28;7090;-74
2023/06/01 06:17:49;;;;;;;;;;;;;;;16.37;55.96;101165.84;4988809;28;6832;-71
2023/06/01 06:20:16;;;;;;;;;;;;;;;16.40;55.60;101168.53;4953435;28;7159;-72
2023/06/01 06:22:42;;;;;;;;;;;;;;;16.41;55.41;101164.25;4970952;28;6788;-73
2023/06/01 06:25:08;;;;;;;;;;;;;;;16.42;55.31;101166.00;4975801;28;6984;-71
2023/06/01 06:27:34;;;;;;;;;;;;;;;16.42;55.52;101161.72;4960769;28;6824;-71
2023/06/01 06:30:00;;;;;;;;;;;;;;;16.44;55.69;101165.25;4949026;28;6776;-75
2023/06/01 06:32:26;;;;;;;;;;;;;;;16.46;55.56;101168.75;4981854;28;7244;-72
2023/06/01 06:34:51;;;;;;;;;;;;;;;16.47;55.50;101160.16;4965237;28;7155;-72
2023/06/01 06:37:17;;;;;;;;;;;;;;;16.52;55.67;101157.75;4948399;28;7210;-71
2023/06/01 06:39:44;;;;;;;;;;;;;;;16.57;55.37;101160.50;4954819;28;6796;-73
2023/06/01 06:42:10;;;;;;;;;;;;;;;16.61;55.37;101162.34;4982613;28;6788;-73
2023/06/01 06:44:35;;;;;;;;;;;;;;;16.64;55.21;101167.66;4954855;28;6796;-71
2023/06/01 06:47:01;;;;;;;;;;;;;;;16.64;55.27;101165.06;4976458;28;7130;-72
2023/06/01 06:49:27;;;;;;;;;;;;;;;16.67;55.14;101172.94;4988717;28;6839;-72
2023/06/01 06:51:53;;;;;;;;;;;;;;;16.69;55.06;101166.09;4979719;28;7162;-73
2023/06/01 06:54:19;;;;;;;;;;;;;;;16.72;54.95;101165.31;4958495;28;6812;-73
2023/06/01 06:56:44;;;;;;;;;;;;;;;16.75;54.87;101165.41;4954481;28;6776;-72
2023/06/01 06:59:10;;;;;;;;;;;;;;;16.77;54.90;101174.16;4988705;28;7149;-72
2023/06/01 07:01:37;;;;;;;;;;;;;;;16.82;54.80;101175.16;4956632;28;8071;-72
2023/06/01 07:04:05;;;;;;;;;;;;;;;16.87;54.59;101175.31;4958684;28;6893;-71
2023/06/01 07:06:32;;;;;;;;;;;;;;;16.87;54.39;101177.91;4992228;28;8175;-72
2023/06/01 07:08:58;;;;;;;;;;;;;;;16.88;54.49;101182.25;4948903;28;7002;-75
2023/06/01 07:11:26;;;;;;;;;;;;;;;16.88;54.29;101183.16;4959749;28;6776;-71
2023/06/01 07:13:57;;;;;;;;;;;;;;;16.87;54.28;101185.69;4956306;28;8075;-72
2023/06/01 07:16:25;;;;;;;;;;;;;;;16.88;54.32;101182.25;4965218;28;6804;-73
2023/06/01 07:18:51;;;;;;;;;;;;;;;16.96;54.82;101179.97;4957979;28;6820;-72
2023/06/01 07:21:17;;;;;;;;;;;;;;;17.05;54.43;101186.34;4982151;28;6860;-71
2023/06/01 07:23:45;;;;;;;;;;;;;;;17.14;54.18;101187.50;4961149;28;6812;-72
2023/06/01 07:26:11;;;;;;;;;;;;;;;17.23;54.25;101184.31;4969111;28;7621;-72
2023/06/01 07:28:36;;;;;;;;;;;;;;;17.30;54.16;101184.59;4955472;28;6788;-72
2023/06/01 07:31:03;;;;;;;;;;;;;;;17.41;53.98;101181.47;4952768;28;6870;-71
2023/06/01 07:33:29;;;;;;;;;;;;;;;17.54;53.84;101183.59;4952863;28;6812;-72
2023/06/01 07:35:57;;;;;;;;;;;;;;;17.68;53.34;101184.03;4985535;28;6936;-71
2023/06/01 07:38:23;;;;;;;;;;;;;;;17.81;53.43;101187.91;4968735;28;7090;-72
2023/06/01 07:40:50;;;;;;;;;;;;;;;17.95;53.08;101192.63;4985059;28;6974;-73
2023/06/01 07:43:16;;;;;;;;;;;;;;;18.10;53.41;101193.13;4977552;28;6987;-72
2023/06/01 07:45:42;;;;;;;;;;;;;;;18.25;52.51;101194.38;4954186;28;6813;-71
2023/06/01 07:48:08;;;;;;;;;;;;;;;18.33;52.34;101187.72;4987740;28;6776;-75
2023/06/01 07:50:33;;;;;;;;;;;;;;;18.45;52.36;101190.69;4953817;28;6917;-71
2023/06/01 07:52:59;;;;;;;;;;;;;;;18.55;51.33;101190.94;4956262;28;6776;-74
2023/06/01 07:55:25;;;;;;;;;;;;;;;18.65;51.87;101189.47;4960237;28;6772;-72
2023/06/01 07:57:52;;;;;;;;;;;;;;;18.77;50.95;101192.38;4963892;28;7764;-73
2023/06/01 08:00:18;;;;;;;;;;;;;;;18.97;51.06;101179.94;4987869;28;6872;-74
2023/06/01 08:02:44;;;;;;;;;;;;;;;19.19;50.68;101177.91;4989008;28;7344;-75
2023/06/01 08:05:11;;;;;;;;;;;;;;;19.37;49.97;101180.09;4957947;28;7003;-73
2023/06/01 08:07:37;;;;;;;;;;;;;;;19.46;49.81;101179.41;4936282;28;7115;-73
2023/06/01 08:10:08;;;;;;;;;;;;;;;19.49;49.60;101178.63;4980149;28;6974;-72
2023/06/01 08:12:35;;;;;;;;;;;;;;;19.43;48.78;101174.16;4946162;28;7124;-72
2023/06/01 08:15:03;;;;;;;;;;;;;;;19.36;48.73;101174.84;4991067;28;6792;-74
2023/06/01 08:17:30;;;;;;;;;;;;;;;19.33;48.78;101174.78;4962970;28;6824;-74
2023/06/01 08:19:56;;;;;;;;;;;;;;;19.37;49.41;101176.59;4980446;28;7090;-73
2023/06/01 08:22:23;;;;;;;;;;;;;;;19.50;49.44;101176.03;4978111;28;7244;-74
2023/06/01 08:24:51;;;;;;;;;;;;;;;19.61;49.09;101168.50;4992114;28;6983;-72
2023/06/01 08:27:22;;;;;;;;;;;;;;;19.93;49.63;101175.25;4991339;28;6872;-73
2023/06/01 08:29:49;;;;;;;;;;;;;;;20.37;49.13;101161.44;4976575;28;7163;-75
2023/06/01 08:32:16;;;;;;;;;;;;;;;20.88;48.72;101159.81;4957251;28;6800;-74
2023/06/01 08:34:46;;;;;;;;;;;;;;;21.45;47.73;101156.38;4957835;28;6842;-74
2023/06/01 08:37:16;;;;;;;;;;;;;;;22.09;47.33;101154.66;4973277;28;6788;-73
2023/06/01 08:39:42;;;;;;;;;;;;;;;22.73;46.13;101149.28;4994004;28;6966;-74
2023/06/01 08:42:31;;;;;;;;;;;;;;;23.40;45.08;101152.47;4962344;28;6805;-75
2023/06/01 08:44:58;;;;;;;;;;;;;;;23.85;43.61;101142.25;4953841;28;6950;-75
2023/06/01 08:47:28;;;;;;;;;;;;;;;24.16;43.18;101143.28;4963975;28;7319;-74
2023/06/01 08:50:01;;;;;;;;;;;;;;;24.41;42.22;101128.50;4964218;28;6876;-75
2023/06/01 08:52:31;;;;;;;;;;;;;;;24.68;41.82;101140.78;4975865;28;6968;-72
2023/06/01 08:55:04;;;;;;;;;;;;;;;25.05;41.54;101129.44;4948754;28;6967;-74
2023/06/01 08:57:31;;;;;;;;;;;;;;;25.51;40.72;101122.41;4979937;28;7692;-75
2023/06/01 08:59:58;;;;;;;;;;;;;;;25.87;39.96;101123.16;4986905;28;6788;-73
2023/06/01 09:02:25;;;;;;;;;;;;;;;26.22;39.20;101125.66;4988401;28;6792;-73
2023/06/01 09:04:52;;;;;;;;;;;;;;;26.59;38.84;101122.78;4993224;28;6780;-73
2023/06/01 09:07:18;;;;;;;;;;;;;;;26.95;38.16;101119.91;4968568;28;6815;-73
2023/06/01 09:09:45;;;;;;;;;;;;;;;27.16;37.16;101124.09;4976051;28;6811;-73
2023/06/01 09:12:29;;;;;;;;;;;;;;;27.36;36.90;101115.13;4961159;28;6804;-73
2023/06/01 09:15:03;;;;;;;;;;;;;;;27.43;35.95;101114.19;4991992;28;6819;-73
2023/06/01 09:17:29;;;;;;;;;;;;;;;27.44;35.69;101118.53;4960346;28;7156;-73
2023/06/01 09:19:56;;;;;;;;;;;;;;;27.57;35.69;101104.38;4965470;28;6780;-73
2023/06/01 09:22:22;;;;;;;;;;;;;;;27.93;35.71;101108.34;4959381;28;7056;-74
2023/06/01 09:25:00;;;;;;;;;;;;;;;28.47;34.69;101101.44;4993976;28;6930;-73
2023/06/01 09:27:26;;;;;;;;;;;;;;;28.82;33.86;101100.88;4963906;28;6803;-71
2023/06/01 09:30:01;;;;;;;;;;;;;;;29.01;33.06;101094.41;4980023;28;7022;-74
2023/06/01 09:32:26;;;;;;;;;;;;;;;29.06;32.84;101092.56;4993587;28;7008;-72
2023/06/01 09:34:55;;;;;;;;;;;;;;;29.06;32.89;101092.56;4976240;28;7262;-70
2023/06/01 09:37:20;;;;;;;;;;;;;;;28.95;32.29;101088.34;4975943;28;6844;-74
2023/06/01 09:39:46;;;;;;;;;;;;;;;29.04;32.70;101083.78;4990210;28;6971;-72
2023/06/01 09:42:12;;;;;;;;;;;;;;;29.35;32.66;101091.13;4940412;28;7217;-73
2023/06/01 09:44:42;;;;;;;;;;;;;;;29.67;31.62;101089.66;4957664;28;7245;-71
2023/06/01 09:47:12;;;;;;;;;;;;;;;29.64;30.98;101095.84;4984896;28;6811;-71
2023/06/01 09:49:43;;;;;;;;;;;;;;;29.50;30.48;101085.56;4960825;28;6990;-71
2023/06/01 09:52:16;;;;;;;;;;;;;;;29.44;30.76;101085.69;4987076;28;6804;-73
2023/06/01 09:54:48;;;;;;;;;;;;;;;29.47;30.85;101074.22;4959580;28;7129;-71
2023/06/01 09:57:24;;;;;;;;;;;;;;;29.33;30.09;101079.72;4961398;28;9925;-72
2023/06/01 09:59:50;;;;;;;;;;;;;;;29.23;30.10;101086.97;4940374;28;7258;-72
2023/06/01 10:02:24;;;;;;;;;;;;;;;29.15;30.49;101089.75;4985525;28;6795;-71
2023/06/01 10:04:53;;;;;;;;;;;;;;;29.06;30.58;101082.88;4958526;28;6808;-72
2023/06/01 10:07:21;;;;;;;;;;;;;;;29.23;30.31;101082.56;4956004;28;6804;-71
2023/06/01 10:09:55;;;;;;;;;;;;;;;29.50;29.94;101075.00;4955338;28;7005;-71
2023/06/01 10:12:22;;;;;;;;;;;;;;;29.61;29.09;101073.91;4959485;28;6801;-71
2023/06/01 10:14:50;;;;;;;;;;;;;;;29.88;29.32;101068.94;4985343;28;6800;-71
2023/06/01 10:17:17;;;;;;;;;;;;;;;30.27;28.78;101061.03;4987425;28;6816;-71
2023/06/01 10:19:44;;;;;;;;;;;;;;;30.39;28.50;101064.28;4954555;28;8306;-74
2023/06/01 10:22:12;;;;;;;;;;;;;;;30.58;28.38;101062.91;4959304;28;6816;-71
2023/06/01 10:24:41;;;;;;;;;;;;;;;30.81;28.36;101060.59;4962676;28;6812;-73
2023/06/01 10:27:39;;;;;;;;;;;;;;;30.99;27.83;101064.53;4984168;28;7012;-72
2023/06/01 10:30:09;;;;;;;;;;;;;;;31.09;27.57;101065.16;4957572;28;6872;-72
2023/06/01 10:32:37;;;;;;;;;;;;;;;30.97;27.71;101069.00;4949107;28;11396;-73
2023/06/01 10:35:05;;;;;;;;;;;;;;;30.80;27.69;101066.81;4957344;28;6973;-73
2023/06/01 10:37:31;;;;;;;;;;;;;;;30.80;27.78;101069.44;4986572;28;6995;-72
2023/06/01 10:40:21;;;;;;;;;;;;;;;31.06;27.34;101071.38;4983054;28;6784;-71
2023/06/01 10:42:47;;;;;;;;;;;;;;;31.28;27.41;101070.81;4986485;28;6788;-70
2023/06/01 10:45:36;;;;;;;;;;;;;;;31.30;27.13;101064.56;4954477;28;6793;-72
2023/06/01 10:48:04;;;;;;;;;;;;;;;31.25;27.23;101062.97;4958106;28;6807;-70
2023/06/01 10:50:30;;;;;;;;;;;;;;;31.26;26.47;101065.59;4975467;28;8748;-70
2023/06/01 10:53:34;;;;;;;;;;;;;;;31.28;26.70;101060.22;4989593;28;7148;-71
2023/06/01 10:56:28;;;;;;;;;;;;;;;31.43;26.83;101050.97;4972062;28;6788;-73
2023/06/01 10:59:08;;;;;;;;;;;;;;;31.72;26.78;101055.41;4965737;28;6875;-73
2023/06/01 11:01:38;;;;;;;;;;;;;;;32.02;26.67;101048.38;4970875;28;8433;-70
2023/06/01 11:04:05;;;;;;;;;;;;;;;32.23;26.52;101042.34;4937533;28;6992;-72
2023/06/01 11:06:37;;;;;;;;;;;;;;;32.57;26.15;101039.53;4968851;28;7059;-70
2023/06/01 11:09:05;;;;;;;;;;;;;;;32.97;25.54;101032.84;4985628;28;7275;-73
2023/06/01 11:11:52;;;;;;;;;;;;;;;33.07;25.11;101026.28;4951184;28;6880;-71
2023/06/01 11:14:24;;;;;;;;;;;;;;;32.99;24.79;101022.19;4955787;28;7447;-73
2023/06/01 11:16:52;;;;;;;;;;;;;;;32.86;24.99;101027.03;4972429;28;7275;-71
2023/06/01 11:19:26;;;;;;;;;;;;;;;32.62;24.88;101017.22;4954469;28;7002;-72
2023/06/01 11:22:04;;;;;;;;;;;;;;;32.43;24.95;101019.63;4952574;28;6994;-71
2023/06/01 11:24:37;;;;;;;;;;;;;;;32.26;25.36;101017.53;4954852;28;6831;-73
2023/06/01 11:27:10;;;;;;;;;;;;;;;32.15;25.12;101023.19;4979597;28;6995;-72
2023/06/01 11:29:36;;;;;;;;;;;;;;;32.02;25.38;101014.78;4981363;28;7006;-70
2023/06/01 11:32:05;;;;;;;;;;;;;;;31.98;25.17;101007.84;4970891;28;6987;-70
2023/06/01 11:34:51;;;;;;;;;;;;;;;32.07;25.33;101012.00;4977899;28;7240;-71
2023/06/01 11:37:19;;;;;;;;;;;;;;;32.11;25.08;101008.31;4987306;28;6883;-71
2023/06/01 11:39:46;;;;;;;;;;;;;;;32.03;25.18;101010.34;4992918;28;8031;-76
2023/06/01 11:42:17;;;;;;;;;;;;;;;32.02;25.05;101012.13;4958186;28;6845;-71
2023/06/01 11:44:56;;;;;;;;;;;;;;;32.07;25.18;101012.00;4978837;28;6876;-73
2023/06/01 11:47:22;;;;;;;;;;;;;;;32.13;25.02;101017.06;4951360;28;6819;-74
2023/06/01 11:49:50;;;;;;;;;;;;;;;32.20;25.14;101013.31;4947621;28;7237;-72
2023/06/01 11:52:20;;;;;;;;;;;;;;;32.27;24.38;101001.59;4973085;28;7355;-71
2023/06/01 11:54:47;;;;;;;;;;;;;;;32.51;24.90;101009.63;4981542;28;7082;-71
2023/06/01 11:57:14;;;;;;;;;;;;;;;32.58;24.50;100996.16;4963633;28;7180;-73
2023/06/01 11:59:46;;;;;;;;;;;;;;;32.64;24.59;100996.81;4991781;28;7846;-73
2023/06/01 12:02:29;;;;;;;;;;;;;;;32.65;24.45;100995.03;4958161;28;7595;-73
2023/06/01 12:05:13;;;;;;;;;;;;;;;32.41;24.76;100990.53;4949917;28;7081;-74
2023/06/01 12:07:53;;;;;;;;;;;;;;;32.28;24.51;100991.81;4972735;28;6953;-73
2023/06/01 12:10:20;;;;;;;;;;;;;;;32.29;24.68;100988.25;4990570;28;6820;-71
2023/06/01 12:12:46;;;;;;;;;;;;;;;32.30;24.87;100981.19;4989121;28;6859;-73
2023/06/01 12:15:18;;;;;;;;;;;;;;;32.27;24.79;100979.50;4957008;28;6989;-72
2023/06/01 12:17:55;;;;;;;;;;;;;;;32.35;24.76;100979.22;4990151;28;6983;-72
2023/06/01 12:20:35;;;;;;;;;;;;;;;32.42;25.05;100981.66;4980114;28;6860;-73
2023/06/01 12:23:13;;;;;;;;;;;;;;;32.47;24.74;100978.84;4972695;28;7071;-72
2023/06/01 12:25:54;;;;;;;;;;;;;;;32.45;24.83;100979.81;4956364;28;9090;-72
2023/06/01 12:28:25;;;;;;;;;;;;;;;32.41;24.78;100976.41;4961501;28;6820;-73
2023/06/01 12:31:12;;;;;;;;;;;;;;;32.44;24.61;100981.59;4976208;28;7014;-72
2023/06/01 12:33:40;;;;;;;;;;;;;;;32.32;24.50;100974.03;4990711;28;7377;-72
2023/06/01 12:36:08;;;;;;;;;;;;;;;32.21;24.82;100977.03;4942513;28;8177;-71
2023/06/01 12:38:50;;;;;;;;;;;;;;;32.22;24.78;100970.84;4959842;28;7032;-72
2023/06/01 12:41:17;;;;;;;;;;;;;;;32.33;24.46;100971.34;4985462;28;6991;-71
2023/06/01 12:43:48;;;;;;;;;;;;;;;32.50;24.91;100978.72;4960916;28;6868;-71
2023/06/01 12:46:28;;;;;;;;;;;;;;;32.71;24.37;100965.59;4960633;28;6911;-71
2023/06/01 12:49:12;;;;;;;;;;;;;;;32.90;24.40;100970.25;4990315;28;6808;-72
2023/06/01 12:51:38;;;;;;;;;;;;;;;32.93;24.12;100965.72;4981753;28;6816;-73
2023/06/01 12:54:04;;;;;;;;;;;;;;;32.94;23.81;100963.94;4972994;28;7048;-73
2023/06/01 12:56:30;;;;;;;;;;;;;;;33.02;23.87;100963.66;4958667;28;7352;-72
2023/06/01 12:58:55;;;;;;;;;;;;;;;33.11;23.78;100964.16;4991456;28;6942;-71